Time;durP1;ratioP1;P1;durP2;ratioP2;P2;SDS_P1;SDS_P2;PMS_P1;PMS_P2;Temp;Humidity;BMP_temperature;BMP_pressure;BME280_temperature;BME280_humidity;BME280_pressure;Samples;Min_cycle;Max_cycle;Signal;HPM_P1;HPM_P2
2022/05/01 00:01:55;;;;;;;70.00;46.30;;;;;;;6.96;71.54;99374.95;104998;1271;61302;-75
2022/05/01 00:04:21;;;;;;;70.60;49.00;;;;;;;6.93;71.74;99374.02;105030;1271;61441;-76
2022/05/01 00:06:47;;;;;;;66.60;47.00;;;;;;;6.90;71.92;99371.91;104886;1274;61424;-74
2022/05/01 00:09:13;;;;;;;67.30;45.90;;;;;;;6.87;72.03;99373.45;105039;1271;61421;-74
2022/05/01 00:11:41;;;;;;;64.10;45.20;;;;;;;6.84;72.13;99374.98;105026;1270;69441;-76
2022/05/01 00:14:07;;;;;;;62.00;44.40;;;;;;;6.83;72.30;99370.97;104993;1271;73378;-76
2022/05/01 00:16:33;;;;;;;59.00;45.80;;;;;;;6.82;72.60;99370.86;104961;1271;61364;-74
2022/05/01 00:19:00;;;;;;;58.70;45.10;;;;;;;6.79;72.66;99367.28;104999;1271;61303;-74
2022/05/01 00:21:26;;;;;;;63.60;44.40;;;;;;;6.78;72.89;99370.34;105032;1271;61385;-75
2022/05/01 00:23:52;;;;;;;62.00;45.20;;;;;;;6.77;73.17;99369.64;105050;1271;61382;-75
2022/05/01 00:26:18;;;;;;;59.30;43.50;;;;;;;6.78;73.20;99367.64;105049;1271;61315;-76
2022/05/01 00:28:44;;;;;;;60.80;44.90;;;;;;;6.83;73.58;99368.89;105001;1271;61345;-77
2022/05/01 00:31:10;;;;;;;58.10;43.30;;;;;;;6.85;74.06;99370.17;104984;1271;61397;-75
2022/05/01 00:36:26;;;;;;;55.70;43.50;;;;;;;6.91;74.37;99366.91;105004;1271;70107;-75
2022/05/01 00:38:55;;;;;;;55.00;44.20;;;;;;;6.94;74.45;99366.59;105037;1271;74710;-74
2022/05/01 00:41:23;;;;;;;60.00;45.40;;;;;;;6.98;74.31;99370.11;105002;1271;61384;-75
2022/05/01 00:43:56;;;;;;;52.50;42.20;;;;;;;7.01;74.40;99369.96;105040;1271;61348;-75
2022/05/01 00:46:24;;;;;;;55.10;43.40;;;;;;;7.04;74.63;99372.67;104891;1271;76746;-77
2022/05/01 00:48:51;;;;;;;56.50;44.50;;;;;;;7.07;74.77;99371.30;105039;1271;70317;-74
2022/05/01 00:51:20;;;;;;;60.90;45.00;;;;;;;7.11;74.88;99373.91;104861;1271;73367;-76
2022/05/01 00:53:50;;;;;;;61.60;46.20;;;;;;;7.14;74.87;99369.03;105008;1271;61192;-75
2022/05/01 00:56:18;;;;;;;57.00;42.20;;;;;;;7.14;74.73;99370.41;105075;1271;61791;-74
2022/05/01 00:58:46;;;;;;;54.70;43.10;;;;;;;7.14;74.60;99368.32;105023;1271;75427;-76
2022/05/01 01:01:13;;;;;;;51.30;39.30;;;;;;;7.14;74.64;99365.85;105054;1271;69670;-75
2022/05/01 01:03:39;;;;;;;50.90;38.70;;;;;;;7.14;74.49;99367.95;105084;1271;74138;-75
2022/05/01 01:06:06;;;;;;;52.30;39.70;;;;;;;7.13;74.55;99364.84;104996;1271;61311;-74
2022/05/01 01:08:32;;;;;;;54.60;40.70;;;;;;;7.11;74.65;99366.00;104992;1271;61388;-76
2022/05/01 01:10:58;;;;;;;48.90;39.60;;;;;;;7.07;74.57;99361.23;105044;1271;61364;-77
2022/05/01 01:13:26;;;;;;;52.40;39.90;;;;;;;7.03;74.63;99363.34;104907;1271;61375;-74
2022/05/01 01:15:56;;;;;;;50.40;39.90;;;;;;;7.00;74.72;99357.98;105035;1271;74262;-74
2022/05/01 01:18:23;;;;;;;48.30;38.30;;;;;;;6.97;74.73;99358.33;105064;1271;61199;-75
2022/05/01 01:20:53;;;;;;;50.10;39.50;;;;;;;6.93;74.84;99359.22;105006;1271;61374;-76
2022/05/01 01:23:20;;;;;;;53.90;39.40;;;;;;;6.88;74.80;99356.43;105118;1271;75619;-76
2022/05/01 01:25:47;;;;;;;55.20;40.90;;;;;;;6.84;75.10;99353.83;105022;1271;68686;-74
2022/05/01 01:28:14;;;;;;;50.30;41.90;;;;;;;6.79;75.29;99353.85;104972;1271;73589;-75
2022/05/01 01:33:29;;;;;;;55.40;45.10;;;;;;;6.75;75.43;99351.76;105004;1271;61256;-75
2022/05/01 01:35:58;;;;;;;53.50;43.10;;;;;;;6.74;75.42;99351.44;105001;1271;76318;-75
2022/05/01 01:38:24;;;;;;;52.90;42.90;;;;;;;6.74;75.45;99354.94;105006;1271;69255;-76
2022/05/01 01:40:55;;;;;;;54.40;42.30;;;;;;;6.74;75.55;99352.84;105023;1271;61385;-75
2022/05/01 01:43:28;;;;;;;52.30;41.90;;;;;;;6.72;75.63;99351.89;105035;1274;61388;-76
2022/05/01 01:45:55;;;;;;;54.50;42.90;;;;;;;6.68;75.76;99347.29;105059;1271;61295;-75
2022/05/01 01:48:23;;;;;;;53.20;42.30;;;;;;;6.66;75.79;99344.04;105101;1271;75318;-74
2022/05/01 01:50:59;;;;;;;48.60;40.00;;;;;;;6.66;75.91;99344.20;105062;1271;69172;-74
2022/05/01 01:53:27;;;;;;;52.70;41.00;;;;;;;6.64;75.95;99346.39;105050;1271;73754;-76
2022/05/01 01:55:54;;;;;;;53.10;40.60;;;;;;;6.61;76.07;99349.02;105092;1271;61348;-77
2022/05/01 01:58:20;;;;;;;48.20;39.30;;;;;;;6.57;76.26;99345.83;105041;1271;62007;-76
2022/05/01 02:00:46;;;;;;;52.40;40.70;;;;;;;6.52;76.40;99349.05;105019;1271;61358;-75
2022/05/01 02:03:12;;;;;;;55.00;41.00;;;;;;;6.48;76.56;99347.50;105040;1271;61408;-75
2022/05/01 02:05:39;;;;;;;56.60;42.70;;;;;;;6.41;76.76;99347.08;105070;1271;61401;-75
2022/05/01 02:08:05;;;;;;;53.70;39.10;;;;;;;6.35;76.86;99349.13;105024;1271;61394;-76
2022/05/01 02:10:31;;;;;;;56.50;40.00;;;;;;;6.29;76.97;99345.33;105018;1271;61305;-75
2022/05/01 02:13:00;;;;;;;46.60;38.70;;;;;;;6.23;77.30;99344.69;105006;1271;61270;-75
2022/05/01 02:15:30;;;;;;;47.40;37.90;;;;;;;6.18;77.48;99343.17;105065;1271;69497;-76
2022/05/01 02:17:58;;;;;;;54.10;42.10;;;;;;;6.10;77.73;99347.18;104994;1271;73467;-74
2022/05/01 02:20:26;;;;;;;56.10;43.90;;;;;;;6.03;77.93;99345.05;104938;1271;61358;-76
2022/05/01 02:22:55;;;;;;;59.10;44.10;;;;;;;5.93;78.14;99347.40;104875;1275;61335;-75
2022/05/01 02:25:21;;;;;;;57.40;43.70;;;;;;;5.83;78.30;99346.73;104985;1271;75468;-75
2022/05/01 02:27:48;;;;;;;57.00;45.40;;;;;;;5.77;78.47;99349.61;105101;1271;61291;-74
2022/05/01 02:30:14;;;;;;;55.40;45.80;;;;;;;5.72;78.77;99350.88;104984;1271;61390;-76
2022/05/01 02:32:40;;;;;;;62.10;48.70;;;;;;;5.67;78.93;99347.19;104995;1271;61928;-75
2022/05/01 02:35:08;;;;;;;64.60;49.00;;;;;;;5.64;79.34;99344.86;104953;1271;61397;-77
2022/05/01 02:37:35;;;;;;;63.30;49.20;;;;;;;5.62;79.71;99343.38;105040;1271;75560;-75
2022/05/01 02:40:02;;;;;;;66.00;51.20;;;;;;;5.61;79.90;99343.41;104825;1271;70512;-75
2022/05/01 02:42:29;;;;;;;66.50;49.90;;;;;;;5.59;80.35;99343.13;105019;1271;73323;-75
2022/05/01 02:44:57;;;;;;;61.40;46.60;;;;;;;5.59;80.77;99341.38;104970;1271;61409;-75
2022/05/01 02:47:23;;;;;;;61.40;46.80;;;;;;;5.60;81.05;99346.10;104988;1271;61884;-75
2022/05/01 02:49:49;;;;;;;56.80;45.00;;;;;;;5.60;81.11;99344.18;104943;1271;61389;-76
2022/05/01 02:52:16;;;;;;;59.10;48.00;;;;;;;5.57;81.09;99346.74;104924;1271;61310;-76
2022/05/01 02:54:42;;;;;;;60.00;50.00;;;;;;;5.52;81.33;99349.43;105011;1271;61375;-76
2022/05/01 02:57:08;;;;;;;60.20;53.00;;;;;;;5.45;81.50;99348.10;104989;1271;61380;-75
2022/05/01 02:59:34;;;;;;;59.50;49.70;;;;;;;5.42;81.67;99344.70;104967;1271;61408;-75
2022/05/01 03:02:00;;;;;;;59.70;46.10;;;;;;;5.39;81.82;99343.24;104951;1271;61371;-75
2022/05/01 03:04:26;;;;;;;60.40;47.70;;;;;;;5.40;82.13;99340.94;104984;1271;61371;-77
2022/05/01 03:06:52;;;;;;;60.70;47.50;;;;;;;5.41;82.29;99337.38;104986;1271;61384;-75
2022/05/01 03:09:18;;;;;;;63.90;49.60;;;;;;;5.40;82.53;99331.23;104992;1271;61343;-76
2022/05/01 03:11:44;;;;;;;62.60;49.40;;;;;;;5.38;82.82;99327.41;105044;1271;61813;-75
2022/05/01 03:14:10;;;;;;;57.30;42.90;;;;;;;5.40;83.46;99329.10;104458;1274;529913;-74
2022/05/01 03:16:36;;;;;;;51.20;42.10;;;;;;;5.45;83.72;99328.00;104984;1271;61390;-74
2022/05/01 03:24:33;;;;;;;54.90;43.00;;;;;;;5.48;83.34;99332.98;104826;1271;75499;-75
2022/05/01 03:26:58;;;;;;;54.60;44.60;;;;;;;5.45;83.29;99331.88;104967;1271;61415;-75
2022/05/01 03:29:25;;;;;;;57.10;45.00;;;;;;;5.43;83.41;99331.64;105001;1271;61320;-76
2022/05/01 03:31:52;;;;;;;54.40;46.10;;;;;;;5.40;83.45;99333.88;104786;1272;61384;-76
2022/05/01 03:34:18;;;;;;;54.60;44.30;;;;;;;5.39;83.56;99336.02;104988;1271;61324;-76
2022/05/01 03:36:50;;;;;;;55.90;45.40;;;;;;;5.38;83.59;99335.86;104812;1276;61390;-75
2022/05/01 03:39:16;;;;;;;54.50;45.00;;;;;;;5.39;83.61;99338.30;105012;1271;69649;-75
2022/05/01 03:41:42;;;;;;;51.30;42.90;;;;;;;5.44;83.72;99333.36;104822;1274;61488;-75
2022/05/01 03:44:08;;;;;;;48.60;42.30;;;;;;;5.47;84.07;99337.63;104953;1271;61358;-75
2022/05/01 03:46:41;;;;;;;51.30;41.90;;;;;;;5.52;84.06;99344.46;104963;1271;61398;-75
2022/05/01 03:49:11;;;;;;;50.90;40.80;;;;;;;5.68;83.74;99338.34;104952;1271;76480;-74
2022/05/01 03:51:37;;;;;;;49.70;42.00;;;;;;;5.87;83.54;99339.48;105049;1271;69777;-76
2022/05/01 03:54:05;;;;;;;51.00;41.10;;;;;;;6.16;83.11;99337.60;104957;1271;61189;-75
2022/05/01 03:56:33;;;;;;;50.40;39.80;;;;;;;6.45;82.69;99336.13;105011;1271;61387;-74
2022/05/01 03:58:59;;;;;;;48.50;37.60;;;;;;;6.67;82.30;99337.08;105047;1271;62749;-75
2022/05/01 04:01:26;;;;;;;44.40;39.20;;;;;;;6.93;81.85;99339.27;104987;1271;61208;-75
2022/05/01 04:03:53;;;;;;;52.20;39.20;;;;;;;7.26;81.08;99333.09;105011;1271;70433;-75
2022/05/01 04:06:19;;;;;;;44.30;39.00;;;;;;;7.61;80.11;99328.92;104969;1271;73285;-76
2022/05/01 04:08:45;;;;;;;45.00;39.00;;;;;;;7.99;79.12;99326.31;104944;1271;61390;-75
2022/05/01 04:11:11;;;;;;;44.30;39.40;;;;;;;8.31;78.20;99327.11;105007;1271;61415;-75
2022/05/01 04:13:37;;;;;;;46.90;40.20;;;;;;;8.60;77.50;99327.21;104979;1271;61312;-75
2022/05/01 04:16:04;;;;;;;42.80;38.00;;;;;;;8.90;76.62;99328.59;104790;1271;61464;-76
2022/05/01 04:18:31;;;;;;;41.70;37.20;;;;;;;9.16;76.01;99327.54;104921;1271;61375;-74
2022/05/01 04:21:01;;;;;;;40.20;36.00;;;;;;;9.41;75.21;99334.86;104938;1271;61275;-76
2022/05/01 04:23:28;;;;;;;45.20;38.70;;;;;;;9.71;74.29;99329.55;105038;1271;61156;-76
2022/05/01 04:25:54;;;;;;;43.60;38.50;;;;;;;10.10;73.20;99329.95;104971;1271;61368;-75
2022/05/01 04:28:20;;;;;;;43.70;39.10;;;;;;;10.51;72.50;99329.65;105028;1271;69421;-75
2022/05/01 04:30:50;;;;;;;43.10;38.50;;;;;;;10.96;71.30;99322.17;104956;1271;61387;-76
2022/05/01 04:33:16;;;;;;;44.00;39.30;;;;;;;11.34;70.29;99320.31;104999;1271;61368;-75
2022/05/01 04:35:45;;;;;;;43.10;38.40;;;;;;;11.56;69.26;99318.15;105010;1271;61313;-74
2022/05/01 04:38:15;;;;;;;45.30;40.40;;;;;;;11.82;68.59;99315.58;105031;1271;76125;-76
2022/05/01 04:40:47;;;;;;;42.80;38.20;;;;;;;12.22;67.71;99314.80;104820;1274;69392;-76
2022/05/01 04:43:17;;;;;;;43.50;38.90;;;;;;;12.54;66.80;99314.19;104944;1271;73591;-75
2022/05/01 04:45:44;;;;;;;42.00;37.60;;;;;;;12.88;65.98;99311.98;105014;1271;61329;-75
2022/05/01 04:48:12;;;;;;;42.00;37.50;;;;;;;13.03;65.24;99318.95;104797;1272;61373;-74
2022/05/01 04:50:39;;;;;;;41.90;37.40;;;;;;;13.21;64.56;99320.19;105183;1271;73357;-75
2022/05/01 04:53:09;;;;;;;41.90;37.40;;;;;;;13.43;63.84;99325.69;104894;1274;67533;-76
2022/05/01 04:55:37;;;;;;;39.40;35.20;;;;;;;13.52;63.36;99321.27;105100;1271;73847;-75
2022/05/01 04:58:03;;;;;;;40.30;36.00;;;;;;;13.51;62.47;99320.64;104944;1271;62970;-75
2022/05/01 05:00:30;;;;;;;40.30;35.70;;;;;;;13.13;62.24;99324.52;105015;1271;61854;-76
2022/05/01 05:02:57;;;;;;;41.30;36.90;;;;;;;13.24;61.40;99319.59;104992;1271;75453;-74
2022/05/01 05:05:26;;;;;;;40.50;35.30;;;;;;;13.49;61.17;99318.11;104998;1271;70376;-75
2022/05/01 05:07:52;;;;;;;38.20;33.90;;;;;;;13.96;60.32;99316.05;105033;1271;74296;-75
2022/05/01 05:10:19;;;;;;;39.80;35.60;;;;;;;14.29;59.00;99319.23;104974;1271;61409;-76
2022/05/01 05:12:47;;;;;;;38.70;34.50;;;;;;;14.64;58.79;99327.83;104872;1275;61660;-75
2022/05/01 05:15:16;;;;;;;35.10;31.50;;;;;;;14.94;58.00;99335.81;105060;1271;73010;-75
2022/05/01 05:17:43;;;;;;;33.10;29.60;;;;;;;15.09;57.75;99336.27;104842;1271;70115;-76
2022/05/01 05:20:11;;;;;;;35.40;31.60;;;;;;;15.43;56.91;99331.70;104799;1271;73337;-76
2022/05/01 05:22:39;;;;;;;34.80;30.30;;;;;;;15.65;55.76;99322.17;105095;1271;61419;-76
2022/05/01 05:25:09;;;;;;;34.70;30.70;;;;;;;15.63;54.90;99324.36;105011;1271;61910;-76
2022/05/01 05:27:35;;;;;;;35.20;31.50;;;;;;;15.78;54.52;99328.33;104889;1271;76673;-75
2022/05/01 05:30:03;;;;;;;35.00;30.20;;;;;;;15.90;53.80;99336.82;104968;1271;61403;-75
2022/05/01 05:32:29;;;;;;;34.50;30.70;;;;;;;16.05;53.28;99339.18;105004;1271;73617;-75
2022/05/01 05:34:55;;;;;;;35.00;29.90;;;;;;;16.19;53.08;99346.15;104967;1270;61762;-76
2022/05/01 05:37:21;;;;;;;32.00;28.60;;;;;;;16.34;52.15;99339.21;104709;1272;61180;-77
2022/05/01 05:39:47;;;;;;;33.60;29.70;;;;;;;16.46;50.80;99339.20;104799;1271;62929;-74
2022/05/01 05:42:13;;;;;;;33.20;29.70;;;;;;;16.49;50.23;99335.80;104979;1271;61188;-75
2022/05/01 05:44:39;;;;;;;32.80;29.00;;;;;;;16.46;49.78;99337.47;104980;1271;61252;-75
2022/05/01 05:47:05;;;;;;;33.00;29.40;;;;;;;16.37;49.56;99338.73;104737;1271;61333;-77
2022/05/01 05:49:31;;;;;;;31.60;28.00;;;;;;;16.47;49.53;99345.66;104900;1272;61230;-76
2022/05/01 05:51:58;;;;;;;33.10;28.30;;;;;;;16.69;49.66;99352.16;105010;1271;62685;-76
2022/05/01 05:54:24;;;;;;;33.10;29.50;;;;;;;16.91;49.17;99348.65;105106;1271;73345;-75
2022/05/01 05:56:50;;;;;;;32.90;28.20;;;;;;;16.99;49.16;99349.92;105028;1271;61384;-76
2022/05/01 05:59:16;;;;;;;35.30;30.10;;;;;;;16.72;49.39;99349.89;104981;1271;61392;-76
2022/05/01 06:01:42;;;;;;;34.80;31.10;;;;;;;16.31;49.70;99352.39;104998;1271;61426;-76
2022/05/01 06:04:08;;;;;;;34.30;30.10;;;;;;;16.01;49.66;99351.89;104967;1271;61275;-75
2022/05/01 06:06:35;;;;;;;31.60;28.30;;;;;;;15.79;49.75;99354.92;105004;1271;61377;-75
2022/05/01 06:09:02;;;;;;;31.00;27.70;;;;;;;15.54;49.43;99356.23;105146;1270;61330;-75
2022/05/01 06:11:28;;;;;;;35.60;28.90;;;;;;;15.29;49.26;99362.02;104997;1270;61381;-76
2022/05/01 06:13:54;;;;;;;35.10;28.50;;;;;;;15.13;49.36;99358.45;104983;1271;61321;-76
2022/05/01 06:16:20;;;;;;;33.20;27.10;;;;;;;15.07;49.50;99360.40;104994;1271;61254;-76
2022/05/01 06:18:47;;;;;;;35.60;27.30;;;;;;;15.04;49.28;99355.09;104953;1271;61201;-78
2022/05/01 06:21:13;;;;;;;29.00;24.60;;;;;;;15.10;48.76;99354.42;104972;1271;61194;-77
2022/05/01 06:23:40;;;;;;;29.00;24.20;;;;;;;14.96;47.86;99351.25;105014;1270;61785;-74
2022/05/01 06:26:07;;;;;;;29.20;23.40;;;;;;;14.86;47.42;99353.95;104996;1271;61393;-76
2022/05/01 06:28:34;;;;;;;28.10;23.00;;;;;;;14.80;47.50;99351.64;104843;1271;61384;-75
2022/05/01 06:31:03;;;;;;;28.00;22.50;;;;;;;14.92;47.58;99349.08;104993;1271;61497;-74
2022/05/01 06:33:30;;;;;;;26.50;21.00;;;;;;;15.28;47.52;99347.23;104978;1271;61307;-75
2022/05/01 06:35:57;;;;;;;23.90;20.60;;;;;;;15.59;47.60;99344.57;105032;1271;61829;-75
2022/05/01 06:38:23;;;;;;;26.60;21.10;;;;;;;15.93;47.21;99340.84;105024;1271;61295;-74
2022/05/01 06:40:49;;;;;;;26.20;20.50;;;;;;;16.19;46.70;99342.61;104940;1271;61308;-75
2022/05/01 06:43:18;;;;;;;26.30;22.10;;;;;;;16.30;46.18;99345.70;104978;1271;61311;-76
2022/05/01 06:45:45;;;;;;;27.10;21.10;;;;;;;16.12;46.06;99345.37;105011;1271;61371;-75
2022/05/01 06:48:11;;;;;;;23.40;20.60;;;;;;;16.19;46.00;99344.77;105005;1271;61834;-76
2022/05/01 06:50:38;;;;;;;27.30;22.80;;;;;;;16.40;45.64;99340.31;104819;1271;61267;-77
2022/05/01 06:53:06;;;;;;;24.10;21.40;;;;;;;16.57;45.56;99346.17;105070;1271;69536;-78
2022/05/01 06:55:32;;;;;;;24.50;21.60;;;;;;;16.76;45.93;99346.53;104965;1272;73341;-76
2022/05/01 06:57:58;;;;;;;22.50;19.80;;;;;;;16.99;46.02;99346.90;104978;1271;61403;-77
2022/05/01 07:00:24;;;;;;;23.80;20.70;;;;;;;17.10;45.82;99349.67;104980;1271;61404;-76
2022/05/01 07:02:53;;;;;;;23.50;20.80;;;;;;;16.96;45.58;99353.02;105009;1271;61301;-75
2022/05/01 07:05:20;;;;;;;24.30;21.70;;;;;;;16.78;45.41;99353.18;105018;1271;69210;-76
2022/05/01 07:07:50;;;;;;;24.00;20.90;;;;;;;16.57;45.58;99350.90;105043;1271;73339;-76
2022/05/01 07:10:17;;;;;;;22.80;20.20;;;;;;;16.40;45.41;99350.48;105014;1271;61259;-76
2022/05/01 07:12:43;;;;;;;21.70;19.30;;;;;;;16.27;45.14;99353.94;104940;1271;61276;-77
2022/05/01 07:15:11;;;;;;;23.60;19.50;;;;;;;16.10;45.41;99354.86;104994;1271;61412;-76
2022/05/01 07:17:36;;;;;;;23.70;19.60;;;;;;;16.10;45.45;99351.48;105042;1271;70270;-75
2022/05/01 07:20:03;;;;;;;25.60;21.20;;;;;;;16.09;45.53;99352.46;105035;1271;61806;-76
2022/05/01 07:22:30;;;;;;;21.10;18.80;;;;;;;16.07;45.97;99354.98;104981;1271;61394;-76
2022/05/01 07:24:57;;;;;;;24.70;18.80;;;;;;;16.15;46.28;99351.59;104689;1271;61323;-75
2022/05/01 07:27:23;;;;;;;23.40;18.90;;;;;;;16.21;46.31;99349.45;104848;1272;61449;-76
2022/05/01 07:29:49;;;;;;;22.30;19.80;;;;;;;16.35;46.31;99344.48;104820;1271;63225;-76
2022/05/01 07:32:15;;;;;;;21.20;18.80;;;;;;;16.46;46.45;99340.29;105000;1271;61355;-77
2022/05/01 07:34:41;;;;;;;21.30;17.80;;;;;;;16.49;45.10;99341.13;104984;1271;61365;-75
2022/05/01 07:37:07;;;;;;;22.20;19.80;;;;;;;16.32;44.70;99342.02;105018;1271;61160;-77
2022/05/01 07:39:33;;;;;;;20.10;17.10;;;;;;;16.19;44.93;99342.22;104726;1271;61358;-75
2022/05/01 07:41:59;;;;;;;21.40;17.70;;;;;;;16.21;44.69;99342.09;105018;1271;61300;-76
2022/05/01 07:44:25;;;;;;;19.90;17.60;;;;;;;16.24;44.80;99337.55;105001;1268;61322;-76
2022/05/01 07:46:51;;;;;;;19.90;17.00;;;;;;;16.36;45.36;99335.29;105031;1271;61385;-75
2022/05/01 07:49:18;;;;;;;18.60;16.70;;;;;;;16.57;45.13;99340.08;104964;1271;75450;-77
2022/05/01 07:51:45;;;;;;;17.70;15.80;;;;;;;16.70;44.92;99335.21;105070;1271;69296;-74
2022/05/01 07:54:11;;;;;;;16.60;14.90;;;;;;;16.81;44.74;99337.30;104979;1271;61283;-75
2022/05/01 07:56:38;;;;;;;16.50;14.80;;;;;;;16.92;44.32;99329.58;105006;1271;61301;-76
2022/05/01 07:59:04;;;;;;;15.60;13.80;;;;;;;17.02;44.06;99334.58;104971;1271;62066;-75
2022/05/01 08:01:31;;;;;;;17.80;14.60;;;;;;;17.21;44.75;99333.11;104815;1272;60413;-77
2022/05/01 08:06:42;;;;;;;19.00;15.00;;;;;;;17.34;43.38;99330.80;105031;1271;74593;-76
2022/05/01 08:09:07;;;;;;;14.80;13.20;;;;;;;17.41;43.83;99330.98;105011;1271;61352;-77
2022/05/01 08:11:33;;;;;;;15.60;13.80;;;;;;;17.46;42.95;99325.79;105019;1271;61317;-75
2022/05/01 08:14:00;;;;;;;14.80;13.30;;;;;;;17.49;43.36;99325.20;105012;1271;61390;-77
2022/05/01 08:16:26;;;;;;;14.10;12.60;;;;;;;17.65;43.56;99316.41;105002;1271;61343;-76
2022/05/01 08:21:36;;;;;;;14.20;12.80;;;;;;;17.92;42.65;99313.25;105027;1271;61317;-78
2022/05/01 08:24:03;;;;;;;12.70;11.40;;;;;;;18.02;42.46;99313.34;105030;1271;61279;-77
2022/05/01 08:26:33;;;;;;;13.60;12.10;;;;;;;18.12;42.06;99311.40;105118;1271;61317;-75
2022/05/01 08:29:00;;;;;;;14.70;12.20;;;;;;;18.23;41.86;99305.65;105020;1271;68714;-76
2022/05/01 08:31:28;;;;;;;14.90;13.30;;;;;;;18.29;41.14;99307.06;105024;1271;73620;-77
2022/05/01 08:33:57;;;;;;;14.60;12.70;;;;;;;18.26;41.06;99305.20;105024;1271;61365;-75
2022/05/01 08:36:24;;;;;;;14.60;13.10;;;;;;;18.28;41.30;99303.43;104996;1271;61289;-75
2022/05/01 08:38:50;;;;;;;13.30;12.00;;;;;;;18.41;41.60;99299.66;105032;1271;74393;-75
2022/05/01 08:41:16;;;;;;;13.80;12.30;;;;;;;18.64;41.99;99300.86;104996;1271;61467;-76
2022/05/01 08:43:42;;;;;;;14.80;12.20;;;;;;;18.85;41.34;99294.52;105154;1271;61345;-76
2022/05/01 08:46:27;;;;;;;14.90;12.70;;;;;;;18.97;41.04;99297.95;105024;1271;61202;-75
2022/05/01 08:49:06;;;;;;;13.30;11.20;;;;;;;18.94;40.76;99292.83;105034;1271;61404;-74
2022/05/01 08:51:35;;;;;;;14.20;12.70;;;;;;;19.05;40.80;99294.41;105075;1271;74889;-76
2022/05/01 08:54:04;;;;;;;13.30;11.90;;;;;;;19.15;40.26;99296.30;105052;1271;67438;-76
2022/05/01 08:56:33;;;;;;;12.80;11.50;;;;;;;19.17;39.85;99293.96;105195;1271;73336;-76
2022/05/01 08:59:00;;;;;;;11.20;9.90;;;;;;;19.20;39.89;99288.98;105044;1271;61313;-76
2022/05/01 09:01:30;;;;;;;13.40;11.70;;;;;;;19.34;40.36;99283.50;105069;1271;61273;-75
2022/05/01 09:03:57;;;;;;;;;;;;;;;19.54;39.70;99279.91;105057;1271;76249;-76
2022/05/01 09:06:23;;;;;;;13.20;11.90;;;;;;;19.64;39.76;99274.98;105021;1271;69894;-75
2022/05/01 09:08:51;;;;;;;13.30;11.90;;;;;;;19.74;40.00;99270.34;104846;1272;61376;-75
2022/05/01 09:14:04;;;;;;;9.80;8.60;;;;;;;20.10;39.38;99267.23;105058;1270;61828;-74
2022/05/01 09:16:31;;;;;;;10.70;9.60;;;;;;;20.19;38.75;99266.84;104927;1271;76177;-74
2022/05/01 09:18:57;;;;;;;9.90;8.90;;;;;;;20.31;38.53;99267.19;104994;1271;70149;-74
2022/05/01 09:21:23;;;;;;;9.00;8.00;;;;;;;20.49;38.83;99268.40;104960;1271;61298;-76
2022/05/01 09:23:49;;;;;;;9.80;8.50;;;;;;;20.65;38.21;99264.94;105018;1271;61381;-76
2022/05/01 09:26:20;;;;;;;9.10;7.20;;;;;;;20.76;37.62;99260.77;105026;1271;61330;-76
2022/05/01 09:28:54;;;;;;;8.50;7.60;;;;;;;20.78;36.93;99257.66;104847;1274;76500;-77
2022/05/01 09:31:44;;;;;;;9.90;8.60;;;;;;;20.71;36.68;99255.66;104921;1271;68886;-76
2022/05/01 09:34:23;;;;;;;10.50;8.70;;;;;;;20.65;36.49;99251.77;104982;1271;74352;-76
2022/05/01 09:36:52;;;;;;;9.60;8.40;;;;;;;20.68;36.66;99253.50;105026;1271;61185;-75
2022/05/01 09:39:20;;;;;;;8.20;7.50;;;;;;;20.81;37.28;99246.04;105034;1271;62101;-74
2022/05/01 09:41:49;;;;;;;8.60;7.60;;;;;;;20.97;36.93;99246.81;105053;1271;75357;-76
2022/05/01 09:44:16;;;;;;;9.30;8.40;;;;;;;20.96;36.08;99246.91;105061;1271;69464;-76
2022/05/01 09:46:44;;;;;;;12.00;8.40;;;;;;;20.97;36.28;99244.16;105032;1271;73865;-75
2022/05/01 09:49:15;;;;;;;9.20;8.20;;;;;;;21.04;36.04;99241.55;105181;1271;61285;-76
2022/05/01 09:51:56;;;;;;;8.70;7.70;;;;;;;21.11;36.11;99238.69;105137;1271;61925;-75
2022/05/01 09:54:24;;;;;;;11.00;8.60;;;;;;;21.26;36.11;99233.39;105073;1271;74668;-75
2022/05/01 09:57:00;;;;;;;8.70;7.90;;;;;;;21.29;36.06;99232.35;104825;1271;67709;-76
2022/05/01 09:59:29;;;;;;;9.20;8.30;;;;;;;21.33;35.74;99232.11;105184;1271;74589;-76
2022/05/01 10:02:04;;;;;;;7.10;6.20;;;;;;;21.24;34.82;99236.48;105104;1270;61293;-77
2022/05/01 10:04:32;;;;;;;9.40;7.40;;;;;;;21.11;34.65;99236.26;105025;1271;62004;-76
2022/05/01 10:07:01;;;;;;;8.90;7.00;;;;;;;21.19;34.87;99230.56;104995;1271;76153;-74
2022/05/01 10:09:35;;;;;;;6.90;6.20;;;;;;;21.24;33.99;99232.77;105066;1271;69349;-75
2022/05/01 10:12:06;;;;;;;7.80;6.90;;;;;;;21.32;34.19;99230.20;105025;1271;74420;-75
2022/05/01 10:14:34;;;;;;;8.40;7.30;;;;;;;21.49;34.89;99228.05;105080;1271;61160;-75
2022/05/01 10:17:01;;;;;;;6.20;5.70;;;;;;;21.74;35.58;99226.04;105043;1271;61920;-76
2022/05/01 10:19:27;;;;;;;7.10;6.50;;;;;;;21.95;34.87;99219.80;105018;1271;75218;-76
2022/05/01 10:22:00;;;;;;;7.70;6.90;;;;;;;21.98;34.13;99222.38;105016;1271;61259;-77
2022/05/01 10:24:26;;;;;;;7.60;6.80;;;;;;;21.92;33.41;99218.14;105109;1271;73668;-74
2022/05/01 10:27:25;;;;;;;7.50;6.80;;;;;;;21.87;34.08;99214.42;105071;1271;61384;-75
2022/05/01 10:32:42;;;;;;;6.50;6.00;;;;;;;22.32;34.67;99210.80;104473;1280;75269;-74
2022/05/01 10:35:34;;;;;;;5.80;5.20;;;;;;;22.38;33.48;99209.59;104448;1280;69541;-74
2022/05/01 10:38:06;;;;;;;8.00;7.30;;;;;;;22.41;33.18;99203.41;103872;1285;73312;-75
2022/05/01 10:40:33;;;;;;;7.50;6.70;;;;;;;22.43;33.38;99201.61;103889;1285;61192;-76
2022/05/01 10:43:24;;;;;;;6.90;5.70;;;;;;;22.54;33.76;99201.34;103980;1285;62315;-75
2022/05/01 10:45:52;;;;;;;7.10;6.40;;;;;;;22.62;33.17;99202.84;103899;1285;75623;-75
2022/05/01 10:48:40;;;;;;;7.70;6.40;;;;;;;22.59;32.75;99199.72;103929;1285;69508;-75
2022/05/01 10:51:48;;;;;;;7.10;6.40;;;;;;;22.46;32.17;99203.77;103924;1285;73258;-75
2022/05/01 10:54:17;;;;;;;7.00;6.30;;;;;;;22.37;32.32;99195.41;103882;1285;61425;-75
2022/05/01 10:56:49;;;;;;;7.50;6.20;;;;;;;22.31;32.22;99198.00;103930;1285;61317;-75
2022/05/01 10:59:34;;;;;;;7.30;6.10;;;;;;;22.34;31.82;99196.79;103744;1285;75156;-75
2022/05/01 11:02:06;;;;;;;6.90;6.10;;;;;;;22.28;31.38;99194.95;103900;1285;69735;-75
2022/05/01 11:04:41;;;;;;;10.20;6.90;;;;;;;22.28;31.76;99189.20;103934;1285;73727;-73
2022/05/01 11:07:12;;;;;;;6.70;6.10;;;;;;;22.42;33.03;99190.41;104052;1281;61296;-76
2022/05/01 11:09:41;;;;;;;5.80;5.30;;;;;;;22.63;33.64;99191.02;104488;1281;61868;-76
2022/05/01 11:12:09;;;;;;;5.90;5.40;;;;;;;22.79;33.82;99186.95;104054;1282;76467;-75
2022/05/01 11:14:41;;;;;;;6.40;5.60;;;;;;;22.91;33.92;99189.39;104398;1276;67647;-76
2022/05/01 11:17:12;;;;;;;7.20;5.30;;;;;;;23.06;33.30;99186.08;105024;1271;73351;-75
2022/05/01 11:19:46;;;;;;;7.30;5.50;;;;;;;23.09;33.04;99187.20;105018;1271;61249;-75
2022/05/01 11:22:13;;;;;;;5.60;5.10;;;;;;;23.06;33.02;99187.63;105108;1271;61222;-75
2022/05/01 11:24:45;;;;;;;5.90;5.30;;;;;;;23.16;32.63;99185.02;105063;1271;74202;-76
2022/05/01 11:27:16;;;;;;;7.50;5.60;;;;;;;23.27;33.04;99184.28;105068;1271;70510;-76
2022/05/01 11:30:26;;;;;;;5.90;5.40;;;;;;;23.42;32.75;99180.55;105074;1271;73538;-76
2022/05/01 11:33:19;;;;;;;5.90;5.10;;;;;;;23.47;32.10;99173.31;104992;1271;61245;-75
2022/05/01 11:36:00;;;;;;;6.40;5.80;;;;;;;23.58;32.43;99174.52;104490;1280;61461;-77
2022/05/01 11:38:37;;;;;;;7.40;5.40;;;;;;;23.69;32.34;99169.56;104555;1280;76894;-75
2022/05/01 11:41:04;;;;;;;7.00;4.80;;;;;;;23.86;32.46;99166.65;104477;1280;70486;-75
2022/05/01 11:43:32;;;;;;;5.50;4.80;;;;;;;23.96;32.08;99165.17;104495;1280;74515;-76
2022/05/01 11:46:01;;;;;;;5.40;4.90;;;;;;;24.00;32.02;99160.27;104601;1280;61369;-76